Time;durP1;ratioP1;P1;durP2;ratioP2;P2;SDS_P1;SDS_P2;PMS_P1;PMS_P2;Temp;Humidity;BMP_temperature;BMP_pressure;BME280_temperature;BME280_humidity;BME280_pressure;Samples;Min_cycle;Max_cycle;Signal;HPM_P1;HPM_P2
2022/07/22 00:02:28;;;;;;;11.67;9.50;;;20.10;99.90;;;;;;5074502;28;20455;-86
2022/07/22 00:04:59;;;;;;;10.33;9.47;;;20.10;99.90;;;;;;5074126;28;20507;-86
2022/07/22 00:07:26;;;;;;;8.27;7.67;;;20.10;99.90;;;;;;5073887;28;20454;-86
2022/07/22 00:09:52;;;;;;;9.47;8.70;;;20.10;99.90;;;;;;5074050;28;20441;-86
2022/07/22 00:12:23;;;;;;;8.83;8.17;;;20.00;99.90;;;;;;5073976;28;20544;-86
2022/07/22 00:17:31;;;;;;;9.90;9.10;;;19.60;99.90;;;;;;5072835;28;20460;-86
2022/07/22 00:19:57;;;;;;;10.67;9.87;;;19.60;99.90;;;;;;5073581;28;21091;-87
2022/07/22 00:22:27;;;;;;;10.30;9.40;;;19.60;99.90;;;;;;5073615;28;20462;-86
2022/07/22 00:28:26;;;;;;;9.97;8.97;;;19.70;99.90;;;;;;5070283;28;20466;-86
2022/07/22 00:31:14;;;;;;;9.37;8.00;;;19.70;99.90;;;;;;5073299;28;20489;-86
2022/07/22 00:33:56;;;;;;;10.63;9.83;;;19.40;99.90;;;;;;5068413;28;21056;-86
2022/07/22 00:36:35;;;;;;;10.80;9.77;;;19.30;99.90;;;;;;5071803;28;20451;-86
2022/07/22 00:39:02;;;;;;;9.70;9.00;;;19.20;99.90;;;;;;5074275;28;20431;-85
2022/07/22 00:41:31;;;;;;;10.20;9.40;;;19.20;99.90;;;;;;5073135;28;20466;-86
2022/07/22 00:44:08;;;;;;;8.23;7.63;;;19.10;99.90;;;;;;5072509;28;20810;-86
2022/07/22 00:46:52;;;;;;;11.83;10.73;;;19.10;99.90;;;;;;5073348;28;20420;-86
2022/07/22 00:49:19;;;;;;;9.27;8.47;;;19.10;99.90;;;;;;5071958;28;20452;-86
2022/07/22 00:51:50;;;;;;;9.80;9.07;;;19.00;99.90;;;;;;5072955;28;20439;-86
2022/07/22 00:54:17;;;;;;;9.93;9.00;;;19.00;99.90;;;;;;5073303;28;20555;-86
2022/07/22 00:56:48;;;;;;;10.27;9.33;;;19.00;99.90;;;;;;5072627;28;20448;-86
2022/07/22 00:59:23;;;;;;;10.30;9.40;;;19.10;99.90;;;;;;5072621;28;20443;-86
2022/07/22 01:01:50;;;;;;;10.07;9.07;;;19.20;99.90;;;;;;5072845;28;20466;-86
2022/07/22 01:04:28;;;;;;;9.87;8.97;;;19.30;99.90;;;;;;5072410;28;20509;-86
2022/07/22 01:06:58;;;;;;;10.30;9.50;;;19.30;99.90;;;;;;5072482;28;20781;-86
2022/07/22 01:09:28;;;;;;;9.50;8.70;;;19.30;99.90;;;;;;5072475;28;20459;-86
2022/07/22 01:11:55;;;;;;;10.20;9.50;;;19.40;99.90;;;;;;5072568;28;20443;-86
2022/07/22 01:14:40;;;;;;;9.93;9.00;;;19.40;99.90;;;;;;5072205;28;20471;-86
2022/07/22 01:17:23;;;;;;;9.87;9.03;;;19.40;99.90;;;;;;5072465;28;20522;-86
2022/07/22 01:20:00;;;;;;;10.17;9.37;;;19.40;99.90;;;;;;5072692;28;20491;-86
2022/07/22 01:22:40;;;;;;;10.13;9.43;;;19.50;99.90;;;;;;5072254;28;20454;-86
2022/07/22 01:25:18;;;;;;;9.07;8.37;;;19.50;99.90;;;;;;5072623;28;20439;-86
2022/07/22 01:28:10;;;;;;;9.83;8.97;;;19.50;99.90;;;;;;5071973;28;20459;-86
2022/07/22 01:30:58;;;;;;;10.20;9.50;;;19.50;99.90;;;;;;5071584;28;20492;-86
2022/07/22 01:33:25;;;;;;;9.70;8.80;;;19.50;99.90;;;;;;5072352;28;20467;-86
2022/07/22 01:35:57;;;;;;;9.03;8.30;;;19.40;99.90;;;;;;5071937;28;20456;-86
2022/07/22 01:38:39;;;;;;;10.07;9.17;;;19.10;99.90;;;;;;5072758;28;20933;-86
2022/07/22 01:41:13;;;;;;;10.20;9.20;;;19.00;99.90;;;;;;5071971;28;20523;-86
2022/07/22 01:44:03;;;;;;;8.07;7.47;;;19.10;99.90;;;;;;5071929;28;20467;-86
2022/07/22 01:46:36;;;;;;;9.50;8.70;;;19.10;99.90;;;;;;5072428;28;20431;-86
2022/07/22 01:49:03;;;;;;;10.87;9.90;;;19.00;99.90;;;;;;5072231;28;20912;-86
2022/07/22 01:51:37;;;;;;;9.83;8.93;;;18.90;99.90;;;;;;5072187;28;20979;-86
2022/07/22 01:54:11;;;;;;;9.60;8.80;;;18.80;99.90;;;;;;5085225;22;20497;-86
2022/07/22 02:03:06;;;;;;;9.20;8.43;;;19.10;99.90;;;;;;4996716;28;20888;-86
2022/07/22 02:05:42;;;;;;;10.27;9.37;;;19.00;99.90;;;;;;5032185;28;20429;-86
2022/07/22 02:08:13;;;;;;;10.20;9.27;;;19.00;99.90;;;;;;5032536;28;20468;-86
2022/07/22 02:10:53;;;;;;;10.80;9.90;;;19.00;99.90;;;;;;5032373;28;20429;-86
2022/07/22 02:13:21;;;;;;;9.67;8.93;;;19.00;99.90;;;;;;5031878;28;20560;-86
2022/07/22 02:15:58;;;;;;;;;;;;;;;;;;;;;
2022/07/22 02:18:33;;;;;;;10.77;9.87;;;19.10;99.90;;;;;;5031398;28;20817;-86
2022/07/22 02:23:54;;;;;;;11.43;10.33;;;19.10;99.90;;;;;;5031222;28;20478;-86
2022/07/22 02:32:26;;;;;;;10.03;9.30;;;19.10;99.90;;;;;;5008141;28;20464;-86
2022/07/22 02:34:59;;;;;;;10.20;9.40;;;19.00;99.90;;;;;;5012006;28;20470;-86
2022/07/22 02:37:32;;;;;;;10.60;9.70;;;19.00;99.90;;;;;;5011871;28;20915;-86
2022/07/22 02:40:00;;;;;;;10.30;9.50;;;18.90;99.90;;;;;;5012130;28;20496;-86
2022/07/22 02:42:40;;;;;;;11.37;9.83;;;18.80;99.90;;;;;;5012080;28;20450;-86
2022/07/22 02:45:15;;;;;;;10.50;9.70;;;18.80;99.90;;;;;;5012925;28;20496;-87
2022/07/22 02:47:51;;;;;;;10.57;9.57;;;18.80;99.90;;;;;;5031629;28;20465;-86
2022/07/22 02:50:17;;;;;;;11.07;10.03;;;18.70;99.90;;;;;;5031810;28;20444;-86
2022/07/22 02:52:44;;;;;;;11.10;10.10;;;18.60;99.90;;;;;;5031732;28;20456;-86
2022/07/22 02:55:30;;;;;;;9.87;9.10;;;18.50;99.90;;;;;;5031387;28;20487;-86
2022/07/22 02:58:06;;;;;;;10.83;9.93;;;18.40;99.90;;;;;;5012225;28;20751;-86
2022/07/22 03:00:55;;;;;;;10.60;9.70;;;18.30;99.90;;;;;;5011732;28;20493;-86
2022/07/22 03:03:22;;;;;;;11.70;10.60;;;18.30;99.90;;;;;;5012607;28;20482;-86
2022/07/22 03:05:51;;;;;;;10.63;9.73;;;18.40;99.90;;;;;;5012996;28;20464;-86
2022/07/22 03:08:20;;;;;;;11.77;10.83;;;18.50;99.90;;;;;;5015566;28;20445;-86
2022/07/22 03:10:51;;;;;;;11.70;10.70;;;18.40;99.90;;;;;;5015826;28;20450;-85
2022/07/22 03:13:28;;;;;;;11.23;10.23;;;18.30;99.90;;;;;;5015392;28;20887;-86
2022/07/22 03:15:59;;;;;;;10.73;9.80;;;18.20;99.90;;;;;;5018442;28;20437;-86
2022/07/22 03:18:28;;;;;;;12.60;11.53;;;18.20;99.90;;;;;;5035058;28;20460;-86
2022/07/22 03:21:04;;;;;;;11.13;10.13;;;18.20;99.90;;;;;;5035359;28;20877;-86
2022/07/22 03:23:39;;;;;;;12.13;11.13;;;18.30;99.90;;;;;;5036400;28;20555;-86
2022/07/22 03:26:10;;;;;;;10.77;9.97;;;18.30;99.90;;;;;;5035472;28;20866;-86
2022/07/22 03:29:03;;;;;;;12.67;11.57;;;18.20;99.90;;;;;;5035537;28;20800;-86
2022/07/22 03:31:42;;;;;;;12.50;11.40;;;18.10;99.90;;;;;;5045783;28;20485;-87
2022/07/22 03:34:45;;;;;;;;;;;;;;;;;;;;;
2022/07/22 03:40:16;;;;;;;11.70;10.70;;;18.00;99.90;;;;;;5036963;28;20452;-86
2022/07/22 03:42:47;;;;;;;13.53;12.53;;;17.90;99.90;;;;;;5048513;28;20448;-87
2022/07/22 03:45:18;;;;;;;13.07;11.80;;;17.80;99.90;;;;;;5055768;28;20452;-86
2022/07/22 03:47:45;;;;;;;12.43;11.33;;;17.80;99.90;;;;;;5038273;28;20555;-86
2022/07/22 03:50:55;;;;;;;13.50;12.50;;;17.70;99.90;;;;;;5044439;28;20448;-85
2022/07/22 03:53:38;;;;;;;14.37;13.07;;;17.60;99.90;;;;;;5006406;28;20478;-86
2022/07/22 03:59:16;;;;;;;11.87;10.87;;;17.60;99.90;;;;;;5024797;28;20475;-86
2022/07/22 04:01:43;;;;;;;12.07;10.97;;;17.60;99.90;;;;;;5034009;28;21022;-86
2022/07/22 04:04:16;;;;;;;12.57;11.37;;;17.60;99.90;;;;;;5034261;28;20479;-86
2022/07/22 04:06:51;;;;;;;12.90;11.70;;;17.80;99.90;;;;;;5033952;28;20967;-86
2022/07/22 04:10:04;;;;;;;13.80;12.50;;;18.00;99.90;;;;;;5034101;28;20838;-86
2022/07/22 04:16:50;;;;;;;14.90;13.57;;;18.20;99.90;;;;;;4972335;28;20590;-86
2022/07/22 04:20:12;;;;;;;13.60;12.20;;;18.20;99.90;;;;;;4956027;28;20974;-86
2022/07/22 04:28:01;;;;;;;13.93;12.73;;;17.80;99.90;;;;;;5031358;28;20988;-86
2022/07/22 04:30:40;;;;;;;12.57;11.37;;;17.70;99.90;;;;;;5052717;28;20466;-86
2022/07/22 04:33:18;;;;;;;14.43;12.87;;;17.70;99.90;;;;;;5053656;28;20478;-86
2022/07/22 04:39:50;;;;;;;16.50;13.10;;;17.70;99.90;;;;;;4970415;28;20948;-86
2022/07/22 05:03:37;;;;;;;13.80;12.77;;;17.90;99.90;;;;;;4845080;29;20499;-86
2022/07/22 05:06:53;;;;;;;14.10;12.60;;;18.00;99.90;;;;;;4854096;29;20545;-86
2022/07/22 05:10:14;;;;;;;14.60;13.30;;;18.10;99.90;;;;;;4824680;29;20557;-86
2022/07/22 05:13:00;;;;;;;12.93;11.77;;;18.10;99.90;;;;;;4888727;29;20467;-86
2022/07/22 05:42:54;;;;;;;15.33;13.83;;;18.70;99.90;;;;;;4914628;22;20563;-84
2022/07/22 05:45:42;;;;;;;14.00;12.80;;;18.90;99.90;;;;;;5072360;28;20848;-85
2022/07/22 05:52:17;;;;;;;15.10;13.77;;;19.00;99.90;;;;;;5069168;28;20516;-85
2022/07/22 05:59:10;;;;;;;15.10;13.60;;;19.20;99.90;;;;;;4932819;29;20415;-86
2022/07/22 06:01:40;;;;;;;15.50;14.07;;;19.30;99.90;;;;;;4931437;28;20480;-86
2022/07/22 06:04:08;;;;;;;16.53;15.10;;;19.20;99.90;;;;;;5037344;28;20519;-86
2022/07/22 06:06:35;;;;;;;16.10;14.40;;;19.40;99.90;;;;;;5052122;28;20547;-86
2022/07/22 06:09:07;;;;;;;15.00;13.40;;;19.50;99.90;;;;;;5052062;28;20462;-86
2022/07/22 06:11:33;;;;;;;14.60;13.27;;;19.60;99.90;;;;;;5052235;28;20421;-86
2022/07/22 06:14:00;;;;;;;18.20;14.60;;;19.70;99.90;;;;;;5051514;28;20475;-86
2022/07/22 06:16:39;;;;;;;15.47;14.00;;;19.80;99.90;;;;;;5047874;28;20455;-85
2022/07/22 06:19:07;;;;;;;15.13;13.73;;;19.90;99.90;;;;;;5050427;28;20448;-85
2022/07/22 06:21:43;;;;;;;14.63;13.23;;;20.00;99.90;;;;;;5050804;28;20491;-86
2022/07/22 06:24:10;;;;;;;14.13;12.70;;;20.10;99.90;;;;;;5048603;28;20470;-86
2022/07/22 06:26:39;;;;;;;15.77;14.47;;;20.20;99.90;;;;;;5050319;28;20926;-86
2022/07/22 06:29:05;;;;;;;15.27;13.40;;;20.30;99.90;;;;;;5050416;28;20540;-86
2022/07/22 06:31:32;;;;;;;14.00;12.80;;;20.30;99.90;;;;;;5050983;28;20455;-86
2022/07/22 06:34:05;;;;;;;14.20;12.90;;;20.20;99.90;;;;;;5050214;28;20557;-86
2022/07/22 06:36:33;;;;;;;15.30;13.73;;;20.20;99.90;;;;;;5048102;28;20507;-85
2022/07/22 06:39:00;;;;;;;15.77;14.17;;;20.20;99.90;;;;;;5050775;28;20443;-86
2022/07/22 06:41:27;;;;;;;13.43;12.23;;;20.20;99.90;;;;;;5052537;28;20979;-87
2022/07/22 06:44:00;;;;;;;12.77;11.70;;;20.30;99.90;;;;;;5054336;28;20819;-86
2022/07/22 06:46:41;;;;;;;12.93;11.73;;;20.40;99.90;;;;;;5054273;28;20824;-86
2022/07/22 06:49:19;;;;;;;12.97;11.83;;;20.50;99.90;;;;;;5055133;28;20456;-88
2022/07/22 06:51:48;;;;;;;12.90;11.70;;;20.70;99.90;;;;;;5055360;28;20910;-89
2022/07/22 06:54:15;;;;;;;12.70;11.60;;;20.90;99.90;;;;;;5055261;28;20478;-88
2022/07/22 06:56:44;;;;;;;11.90;10.90;;;21.00;99.90;;;;;;5054992;28;20815;-88
2022/07/22 06:59:12;;;;;;;13.90;12.67;;;21.10;99.90;;;;;;5054884;28;20450;-89
2022/07/22 07:01:43;;;;;;;12.53;11.53;;;21.00;99.90;;;;;;5054903;28;20481;-90
2022/07/22 07:04:10;;;;;;;12.33;11.13;;;21.10;99.90;;;;;;5054897;28;20475;-87
2022/07/22 07:06:37;;;;;;;11.27;10.47;;;21.30;99.90;;;;;;5054399;28;20447;-84
2022/07/22 07:09:05;;;;;;;12.83;11.57;;;21.40;99.90;;;;;;5051507;28;20454;-83
2022/07/22 07:11:32;;;;;;;13.30;12.20;;;21.60;99.90;;;;;;5043470;28;20459;-85
2022/07/22 07:13:58;;;;;;;14.20;12.90;;;21.70;99.90;;;;;;5060687;28;20838;-84
2022/07/22 07:16:25;;;;;;;12.50;11.40;;;21.80;99.90;;;;;;5060633;28;20457;-83
2022/07/22 07:18:52;;;;;;;13.13;12.13;;;21.80;99.90;;;;;;5060180;28;20451;-83
2022/07/22 07:21:19;;;;;;;13.37;12.27;;;21.90;99.90;;;;;;5060145;28;20440;-84
2022/07/22 07:23:45;;;;;;;14.40;12.90;;;22.00;99.90;;;;;;5060663;28;20466;-83
2022/07/22 07:26:14;;;;;;;13.30;12.13;;;22.00;99.90;;;;;;5059990;28;20448;-83
2022/07/22 07:28:41;;;;;;;13.83;12.77;;;22.10;99.90;;;;;;5057647;28;20444;-87
2022/07/22 07:34:08;;;;;;;14.23;13.03;;;22.10;99.90;;;;;;5030577;28;20483;-86
2022/07/22 07:36:37;;;;;;;18.17;14.30;;;22.20;99.90;;;;;;5035845;28;20534;-85
2022/07/22 07:39:04;;;;;;;15.50;13.70;;;22.30;99.90;;;;;;5055997;28;20491;-86
2022/07/22 07:41:32;;;;;;;15.27;13.87;;;22.30;99.90;;;;;;5051028;28;20949;-85
2022/07/22 07:43:59;;;;;;;13.90;12.87;;;22.40;99.90;;;;;;5049996;28;20481;-86
2022/07/22 07:46:26;;;;;;;14.73;13.43;;;22.50;99.90;;;;;;5052730;28;20448;-86
2022/07/22 07:48:53;;;;;;;16.70;15.03;;;22.50;99.90;;;;;;5052330;28;20429;-89
2022/07/22 07:51:20;;;;;;;15.13;13.73;;;22.50;99.90;;;;;;5052366;28;20483;-85
2022/07/22 07:53:47;;;;;;;14.53;13.27;;;22.50;99.90;;;;;;5052265;28;20526;-88
2022/07/22 07:56:14;;;;;;;14.93;13.50;;;22.50;99.90;;;;;;5052087;28;20555;-83
2022/07/22 07:59:25;;;;;;;13.03;11.87;;;22.60;99.90;;;;;;5051790;28;20448;-92
2022/07/22 08:02:08;;;;;;;12.90;11.80;;;22.60;99.90;;;;;;5051067;28;20867;-87
2022/07/22 08:04:36;;;;;;;13.17;12.03;;;22.70;99.90;;;;;;5051797;28;20459;-87
2022/07/22 08:07:04;;;;;;;14.10;12.87;;;22.80;99.90;;;;;;5052787;28;20436;-88
2022/07/22 08:09:30;;;;;;;13.10;12.20;;;22.90;99.90;;;;;;5052176;28;20457;-89
2022/07/22 08:12:05;;;;;;;14.83;13.40;;;22.90;99.90;;;;;;5051151;28;20492;-91
2022/07/22 08:14:32;;;;;;;15.67;14.37;;;23.10;99.90;;;;;;5051713;28;20460;-88
2022/07/22 08:17:03;;;;;;;15.37;14.13;;;23.10;99.90;;;;;;5052104;28;20459;-88
2022/07/22 08:19:29;;;;;;;14.80;13.27;;;23.10;99.90;;;;;;5051651;28;20528;-90
2022/07/22 08:21:56;;;;;;;15.47;14.27;;;23.30;99.90;;;;;;5051319;28;20445;-88
2022/07/22 08:24:27;;;;;;;14.20;13.10;;;23.40;99.90;;;;;;5053156;28;20468;-90
2022/07/22 08:26:56;;;;;;;14.93;13.47;;;23.50;99.90;;;;;;5052197;28;20432;-91
2022/07/22 08:29:23;;;;;;;13.47;12.33;;;23.60;99.90;;;;;;5052387;28;20448;-88
2022/07/22 08:31:50;;;;;;;14.27;13.07;;;23.60;99.90;;;;;;5055068;28;20482;-85
2022/07/22 08:34:18;;;;;;;13.57;12.47;;;23.70;99.90;;;;;;5056439;28;20476;-84
2022/07/22 08:36:45;;;;;;;13.27;12.17;;;23.70;99.90;;;;;;5059300;28;20448;-84
2022/07/22 08:39:12;;;;;;;13.13;12.10;;;23.90;99.90;;;;;;5058117;28;20448;-84
2022/07/22 08:41:39;;;;;;;14.20;12.83;;;23.90;99.90;;;;;;5061580;28;20459;-84
2022/07/22 08:44:09;;;;;;;12.13;11.23;;;24.00;99.90;;;;;;5060370;28;21001;-84
2022/07/22 08:46:36;;;;;;;11.73;10.83;;;24.10;99.90;;;;;;5062566;28;20457;-84
2022/07/22 08:49:06;;;;;;;12.20;11.17;;;24.20;99.90;;;;;;5062314;28;20449;-86
2022/07/22 08:51:34;;;;;;;12.07;10.83;;;24.30;99.90;;;;;;5062977;28;20458;-86
2022/07/22 08:54:01;;;;;;;13.97;12.43;;;24.40;99.90;;;;;;5061688;28;20464;-86
2022/07/22 08:56:27;;;;;;;13.00;12.10;;;24.60;99.90;;;;;;5060301;28;20523;-84
2022/07/22 08:58:54;;;;;;;12.67;11.47;;;24.70;99.90;;;;;;5063209;28;20445;-85
2022/07/22 09:01:21;;;;;;;13.37;12.23;;;24.90;99.90;;;;;;5067334;28;20446;-84
2022/07/22 09:03:49;;;;;;;13.37;12.37;;;25.00;99.90;;;;;;5068160;28;20465;-84
2022/07/22 09:06:17;;;;;;;11.67;10.87;;;25.10;99.90;;;;;;5066545;28;20457;-84
2022/07/22 09:08:54;;;;;;;11.47;10.67;;;25.30;99.90;;;;;;5064168;28;20455;-84
2022/07/22 09:11:22;;;;;;;11.20;10.30;;;25.40;99.90;;;;;;5065307;28;20453;-84
2022/07/22 09:13:49;;;;;;;12.73;11.70;;;25.50;99.90;;;;;;5065042;28;20499;-84
2022/07/22 09:16:16;;;;;;;12.07;10.97;;;25.60;99.90;;;;;;5065223;28;20447;-84
2022/07/22 09:18:49;;;;;;;14.60;13.23;;;25.60;99.50;;;;;;5059612;28;20463;-85
2022/07/22 09:21:15;;;;;;;13.10;12.00;;;25.60;98.60;;;;;;5057793;28;20494;-85
2022/07/22 09:23:43;;;;;;;11.83;10.83;;;25.70;98.80;;;;;;5057979;28;20503;-84
2022/07/22 09:26:30;;;;;;;10.37;9.57;;;25.80;99.20;;;;;;5060633;28;20452;-85
2022/07/22 09:28:58;;;;;;;10.33;9.53;;;26.00;99.00;;;;;;5066496;28;20472;-84
2022/07/22 09:31:51;;;;;;;9.83;9.03;;;26.10;96.80;;;;;;5052675;28;20457;-84
2022/07/22 09:34:51;;;;;;;10.17;9.37;;;26.10;95.20;;;;;;5053823;28;20475;-84
2022/07/22 09:37:28;;;;;;;9.80;9.10;;;26.20;94.70;;;;;;5055398;28;20464;-85
2022/07/22 09:43:41;;;;;;;9.57;8.80;;;26.10;94.30;;;;;;5031683;28;20738;-86
2022/07/22 09:46:16;;;;;;;10.40;9.50;;;26.30;95.60;;;;;;5051248;28;20504;-86
2022/07/22 09:48:51;;;;;;;9.33;8.47;;;26.20;94.60;;;;;;5052068;28;20442;-86
2022/07/22 09:51:48;;;;;;;9.40;8.70;;;26.40;95.90;;;;;;5051432;28;20433;-85
2022/07/22 09:54:15;;;;;;;10.33;9.43;;;26.70;94.90;;;;;;5047739;28;20526;-85
2022/07/22 09:57:36;;;;;;;;;;;;;;;;;;;;;
2022/07/22 10:00:46;;;;;;;10.17;9.30;;;27.10;93.90;;;;;;4969439;28;20460;-86
2022/07/22 10:03:18;;;;;;;9.93;9.13;;;27.30;93.00;;;;;;4972812;28;20503;-86
2022/07/22 10:28:50;;;;;;;10.10;9.23;;;28.50;92.30;;;;;;5045579;28;20450;-82
2022/07/22 10:31:37;;;;;;;8.70;8.10;;;29.00;92.90;;;;;;5055771;28;20835;-86
2022/07/22 10:34:06;;;;;;;11.00;10.00;;;29.10;91.20;;;;;;5035433;28;20500;-85
2022/07/22 10:36:37;;;;;;;10.97;10.13;;;29.10;89.00;;;;;;5054508;28;20460;-84
2022/07/22 10:39:31;;;;;;;10.37;9.57;;;29.10;90.40;;;;;;5055349;28;20447;-85
2022/07/22 10:42:30;;;;;;;9.77;8.93;;;29.00;89.30;;;;;;5034853;28;20894;-86
2022/07/22 10:45:02;;;;;;;8.60;8.10;;;29.20;89.10;;;;;;5068434;28;20511;-82
2022/07/22 10:47:55;;;;;;;10.20;9.30;;;29.50;88.90;;;;;;5060061;28;20444;-87
2022/07/22 11:10:49;;;;;;;10.40;9.43;;;31.50;78.90;;;;;;5053070;28;20450;-88
2022/07/22 11:13:33;;;;;;;10.37;9.67;;;31.80;80.10;;;;;;5061748;28;20489;-85
2022/07/22 11:16:14;;;;;;;8.40;7.90;;;31.80;75.40;;;;;;5059624;28;20455;-86
2022/07/22 11:18:52;;;;;;;9.07;8.47;;;32.30;77.30;;;;;;5065264;28;20446;-86
2022/07/22 11:21:24;;;;;;;9.43;8.80;;;32.90;76.90;;;;;;5073806;28;20454;-86
2022/07/22 11:23:54;;;;;;;7.87;7.37;;;33.40;71.20;;;;;;5073680;28;20471;-86
2022/07/22 11:26:40;;;;;;;8.03;7.40;;;33.90;71.10;;;;;;5068295;28;20454;-86
2022/07/22 11:32:10;;;;;;;9.57;8.60;;;34.80;65.00;;;;;;5070728;28;20447;-85
2022/07/22 11:34:42;;;;;;;8.57;7.87;;;34.90;63.50;;;;;;5079419;28;20547;-85
2022/07/22 11:37:28;;;;;;;9.53;8.87;;;35.30;59.20;;;;;;5075287;28;20497;-86
2022/07/22 11:40:05;;;;;;;8.90;8.20;;;35.80;59.70;;;;;;5075945;28;20450;-85
2022/07/22 11:42:35;;;;;;;9.23;8.53;;;36.20;58.50;;;;;;5087098;23;20487;-82
2022/07/22 11:45:02;;;;;;;9.10;8.50;;;36.50;58.80;;;;;;5110815;28;20525;-80
2022/07/22 11:47:29;;;;;;;9.40;8.80;;;36.80;57.30;;;;;;5126271;28;20457;-81
2022/07/22 11:49:56;;;;;;;9.20;8.60;;;37.10;54.20;;;;;;5117949;28;20452;-80
2022/07/22 11:52:22;;;;;;;9.77;9.07;;;37.20;54.40;;;;;;5121732;27;20452;-80
2022/07/22 11:54:50;;;;;;;9.03;8.37;;;37.20;53.80;;;;;;5131394;27;20442;-80
2022/07/22 11:57:17;;;;;;;8.70;8.20;;;37.50;52.40;;;;;;5136400;27;20510;-80
2022/07/22 11:59:44;;;;;;;8.97;8.30;;;37.60;51.70;;;;;;5132442;27;20445;-81
2022/07/22 12:02:13;;;;;;;9.30;8.40;;;37.80;52.80;;;;;;5130987;27;20445;-84
2022/07/22 12:04:41;;;;;;;8.67;8.17;;;37.90;53.30;;;;;;5128420;27;20498;-83
2022/07/22 12:07:08;;;;;;;9.33;8.70;;;38.40;51.30;;;;;;5151180;27;20449;-84
2022/07/22 12:09:41;;;;;;;8.03;7.43;;;39.10;50.80;;;;;;5148648;27;20441;-85
2022/07/22 12:12:09;;;;;;;9.60;9.00;;;39.70;49.80;;;;;;5151832;27;20498;-83
2022/07/22 12:14:36;;;;;;;8.40;7.80;;;40.00;48.30;;;;;;5147835;27;20508;-82
2022/07/22 12:17:05;;;;;;;9.80;9.10;;;40.40;47.50;;;;;;5147607;27;20453;-83
2022/07/22 12:19:34;;;;;;;8.30;7.63;;;40.90;47.50;;;;;;5150800;27;20456;-83
2022/07/22 12:22:04;;;;;;;8.50;7.90;;;41.00;45.10;;;;;;5149156;27;20449;-83
2022/07/22 12:24:33;;;;;;;9.73;9.13;;;41.00;42.30;;;;;;5135280;27;20485;-85
2022/07/22 12:27:01;;;;;;;8.77;8.10;;;41.00;44.90;;;;;;5143389;27;20449;-83
2022/07/22 12:29:31;;;;;;;8.33;7.83;;;41.40;44.40;;;;;;5142843;27;20455;-84
2022/07/22 12:32:00;;;;;;;8.30;7.77;;;41.50;44.50;;;;;;5140715;27;20445;-84
2022/07/22 12:34:36;;;;;;;8.40;7.90;;;41.80;42.40;;;;;;5139079;27;20491;-84
2022/07/22 12:37:13;;;;;;;8.40;7.80;;;42.00;42.10;;;;;;5147182;27;20443;-82
2022/07/22 12:39:40;;;;;;;8.57;7.77;;;42.60;40.40;;;;;;5147794;27;20444;-83
2022/07/22 12:42:18;;;;;;;7.93;7.43;;;43.00;41.40;;;;;;5145597;27;20452;-84
2022/07/22 12:44:53;;;;;;;8.20;7.80;;;43.30;39.90;;;;;;5139781;27;20492;-84
2022/07/22 12:47:57;;;;;;;8.80;8.30;;;43.10;39.00;;;;;;5133730;27;20505;-84
2022/07/22 12:50:27;;;;;;;8.33;7.63;;;42.90;40.00;;;;;;5144347;27;20440;-82
2022/07/22 12:52:56;;;;;;;8.20;7.70;;;43.30;38.70;;;;;;5140649;27;20484;-84
2022/07/22 12:55:32;;;;;;;10.10;9.33;;;43.40;37.60;;;;;;5136537;27;20947;-84
2022/07/22 12:57:59;;;;;;;8.23;7.70;;;43.40;37.20;;;;;;5146798;27;20433;-84
2022/07/22 13:00:29;;;;;;;10.77;9.97;;;43.30;36.80;;;;;;5144451;27;20444;-83
2022/07/22 13:02:56;;;;;;;7.73;7.30;;;43.10;38.10;;;;;;5143489;27;20484;-84
2022/07/22 13:05:24;;;;;;;8.83;8.33;;;43.50;37.10;;;;;;5135425;27;20438;-84
2022/07/22 13:07:52;;;;;;;9.40;8.70;;;43.70;36.00;;;;;;5127783;27;20449;-85
2022/07/22 13:10:20;;;;;;;8.63;8.13;;;43.70;35.60;;;;;;5135809;27;20477;-84
2022/07/22 13:12:47;;;;;;;8.60;8.13;;;43.50;36.10;;;;;;5129494;27;20464;-84
2022/07/22 13:15:14;;;;;;;9.33;8.80;;;43.50;36.20;;;;;;5135769;27;21256;-83
2022/07/22 13:17:43;;;;;;;8.67;8.17;;;43.40;36.30;;;;;;5146217;27;20467;-83
2022/07/22 13:20:12;;;;;;;8.20;7.60;;;43.40;36.10;;;;;;5140140;27;20461;-82
2022/07/22 13:25:44;;;;;;;7.80;7.40;;;43.90;34.00;;;;;;5128406;27;20456;-84
2022/07/22 13:28:11;;;;;;;8.60;8.00;;;44.30;33.30;;;;;;5119554;27;20450;-82
2022/07/22 13:30:38;;;;;;;8.10;7.67;;;44.50;34.10;;;;;;5121038;28;20445;-84
2022/07/22 13:33:06;;;;;;;8.07;7.53;;;44.50;34.70;;;;;;5119704;28;20450;-85
2022/07/22 13:35:33;;;;;;;8.93;8.33;;;45.00;33.80;;;;;;5117892;28;20449;-84
2022/07/22 13:38:00;;;;;;;9.47;8.67;;;44.70;32.90;;;;;;5128092;27;20429;-84
2022/07/22 13:40:27;;;;;;;8.07;7.53;;;44.50;32.80;;;;;;5142231;27;20437;-85
2022/07/22 13:42:53;;;;;;;9.03;8.23;;;44.80;33.00;;;;;;5139870;27;20465;-84
2022/07/22 13:45:24;;;;;;;8.77;8.17;;;44.80;33.00;;;;;;5148763;27;20452;-85
2022/07/22 13:47:52;;;;;;;8.10;7.63;;;45.10;33.20;;;;;;5150079;27;20440;-84
2022/07/22 13:50:23;;;;;;;8.20;7.77;;;45.00;32.40;;;;;;5145373;27;20456;-85
2022/07/22 13:52:50;;;;;;;7.83;7.30;;;45.40;33.70;;;;;;5138948;27;20464;-84
2022/07/22 13:55:17;;;;;;;9.57;8.87;;;45.60;31.90;;;;;;5138854;27;20456;-83
2022/07/22 13:57:43;;;;;;;8.77;8.27;;;45.60;31.00;;;;;;5139175;28;20953;-84
2022/07/22 14:00:11;;;;;;;8.50;8.00;;;44.50;31.40;;;;;;5138764;28;20449;-82
2022/07/22 14:02:38;;;;;;;8.47;7.97;;;44.00;31.00;;;;;;5131192;28;20476;-83
2022/07/22 14:05:06;;;;;;;8.10;7.60;;;43.70;31.80;;;;;;5136182;28;20843;-83
2022/07/22 14:07:34;;;;;;;7.43;7.00;;;44.20;32.10;;;;;;5139776;28;20963;-84
2022/07/22 14:10:01;;;;;;;9.03;8.40;;;44.80;32.40;;;;;;5141537;28;20452;-84
2022/07/22 14:12:28;;;;;;;8.47;7.73;;;45.20;32.30;;;;;;5143795;28;20441;-84
2022/07/22 14:14:54;;;;;;;8.47;7.97;;;45.60;30.30;;;;;;5146758;28;20448;-84
2022/07/22 14:17:21;;;;;;;8.00;7.40;;;45.80;30.60;;;;;;5146012;28;20456;-84
2022/07/22 14:19:48;;;;;;;9.70;9.03;;;46.10;30.00;;;;;;5144066;28;20444;-84
2022/07/22 14:22:15;;;;;;;7.97;7.47;;;45.80;29.40;;;;;;5141311;28;20445;-83
2022/07/22 14:24:43;;;;;;;7.83;7.40;;;45.50;30.00;;;;;;5141401;28;20487;-84
2022/07/22 14:27:09;;;;;;;8.07;7.47;;;45.20;29.40;;;;;;5144838;28;20445;-83
2022/07/22 14:30:13;;;;;;;8.13;7.73;;;44.80;29.70;;;;;;5136570;28;20464;-85
2022/07/22 14:33:20;;;;;;;;;;;;;;;;;;;;;
2022/07/22 14:36:35;;;;;;;8.70;8.10;;;44.20;29.80;;;;;;5144393;28;20914;-86
2022/07/22 14:39:16;;;;;;;8.17;7.67;;;44.40;29.60;;;;;;5097937;28;20453;-86
2022/07/22 14:41:46;;;;;;;8.13;7.63;;;44.70;30.00;;;;;;5138411;28;20455;-83
2022/07/22 14:44:13;;;;;;;8.15;7.65;;;45.10;29.70;;;;;;5139378;28;20877;-83
2022/07/22 14:46:39;;;;;;;7.87;7.33;;;44.10;29.40;;;;;;5141475;28;20219;-84
2022/07/22 14:49:07;;;;;;;7.13;6.63;;;44.30;29.60;;;;;;5145977;28;20448;-84
2022/07/22 14:51:33;;;;;;;8.87;8.23;;;44.20;29.50;;;;;;5143893;28;20445;-83
2022/07/22 14:54:00;;;;;;;7.47;7.03;;;44.70;29.70;;;;;;5143639;28;20467;-84
2022/07/22 14:56:27;;;;;;;7.53;7.13;;;45.00;29.80;;;;;;5144569;28;20452;-84
2022/07/22 14:58:55;;;;;;;7.83;7.43;;;44.10;29.90;;;;;;5144662;28;20437;-83
2022/07/22 15:01:22;;;;;;;7.83;7.23;;;44.70;29.60;;;;;;5144421;27;20476;-83
2022/07/22 15:03:48;;;;;;;7.30;6.90;;;45.00;30.20;;;;;;5147518;27;20492;-83
2022/07/22 15:06:15;;;;;;;8.23;7.53;;;45.50;29.60;;;;;;5147975;27;20448;-84
2022/07/22 15:08:42;;;;;;;7.97;7.47;;;45.80;29.40;;;;;;5147882;27;20444;-83
2022/07/22 15:11:11;;;;;;;8.67;8.17;;;46.30;29.20;;;;;;5147877;27;20441;-84
2022/07/22 15:13:37;;;;;;;8.63;8.13;;;46.80;28.90;;;;;;5147955;27;20457;-84
2022/07/22 15:16:06;;;;;;;7.27;6.97;;;47.10;27.90;;;;;;5148581;27;20440;-84
2022/07/22 15:18:33;;;;;;;8.43;7.83;;;47.20;28.20;;;;;;5152703;27;20445;-83
2022/07/22 15:21:00;;;;;;;7.67;7.17;;;46.90;28.30;;;;;;5147374;27;20486;-83
2022/07/22 15:23:29;;;;;;;7.70;7.20;;;46.90;27.50;;;;;;5147990;27;20464;-84
2022/07/22 15:25:56;;;;;;;8.70;8.20;;;46.80;28.10;;;;;;5147210;27;20444;-84
2022/07/22 15:28:22;;;;;;;8.67;8.20;;;47.00;28.60;;;;;;5148158;27;20475;-83
2022/07/22 15:30:49;;;;;;;7.33;6.93;;;47.20;27.90;;;;;;5148153;27;20441;-84
2022/07/22 15:33:17;;;;;;;7.70;7.30;;;47.60;27.70;;;;;;5148380;27;20468;-84
2022/07/22 15:35:46;;;;;;;8.17;7.60;;;47.80;27.40;;;;;;5147593;27;20452;-83
2022/07/22 15:38:13;;;;;;;8.33;7.80;;;48.00;27.60;;;;;;5148620;27;20452;-83
2022/07/22 15:40:39;;;;;;;7.57;7.10;;;48.30;27.40;;;;;;5147674;27;20448;-84
2022/07/22 15:43:06;;;;;;;7.53;6.93;;;48.70;27.10;;;;;;5147056;27;20488;-84
2022/07/22 15:45:34;;;;;;;7.07;6.77;;;49.00;26.00;;;;;;5148004;27;20476;-84
2022/07/22 15:48:01;;;;;;;6.93;6.63;;;49.20;26.20;;;;;;5148527;27;20468;-84